Time;durP1;ratioP1;P1;durP2;ratioP2;P2;SDS_P1;SDS_P2;PMS_P1;PMS_P2;Temp;Humidity;BMP_temperature;BMP_pressure;BME280_temperature;BME280_humidity;BME280_pressure;Samples;Min_cycle;Max_cycle;Signal;HPM_P1;HPM_P2
2023/07/02 00:02:01;;;;;;;4.63;3.25;;;;;;;14.99;100.00;96740.75;5043953;28;20130;-60
2023/07/02 00:04:27;;;;;;;5.85;3.35;;;;;;;14.93;100.00;96747.41;5043217;28;20045;-62
2023/07/02 00:06:54;;;;;;;5.43;3.70;;;;;;;14.87;100.00;96757.56;5042964;28;20464;-61
2023/07/02 00:09:20;;;;;;;5.00;3.50;;;;;;;14.86;100.00;96752.41;5059182;28;20105;-61
2023/07/02 00:11:47;;;;;;;8.07;3.70;;;;;;;14.85;100.00;96759.75;5040013;28;20573;-61
2023/07/02 00:14:14;;;;;;;5.03;3.13;;;;;;;14.77;100.00;96758.50;5056523;28;20837;-60
2023/07/02 00:16:45;;;;;;;6.63;3.42;;;;;;;14.71;100.00;96756.94;5043043;28;20491;-61
2023/07/02 00:19:13;;;;;;;;;;;;;;;14.65;100.00;96769.81;5047262;28;20114;-59
2023/07/02 00:21:41;;;;;;;5.55;3.17;;;;;;;14.67;100.00;96758.63;5049531;28;19968;-61
2023/07/02 00:24:09;;;;;;;5.50;3.05;;;;;;;14.63;100.00;96755.69;5043829;28;20037;-59
2023/07/02 00:26:41;;;;;;;4.20;3.10;;;;;;;14.65;100.00;96761.66;5038088;28;20581;-61
2023/07/02 00:29:10;;;;;;;4.72;2.75;;;;;;;14.60;100.00;96760.91;5035014;28;20044;-60
2023/07/02 00:31:37;;;;;;;5.60;2.83;;;;;;;14.58;100.00;96763.91;5039378;28;20079;-61
2023/07/02 00:34:04;;;;;;;7.22;3.40;;;;;;;14.48;100.00;96766.78;5051569;28;20051;-61
2023/07/02 00:36:31;;;;;;;5.10;3.00;;;;;;;14.49;100.00;96768.41;5040433;28;20114;-61
2023/07/02 00:38:58;;;;;;;4.05;2.67;;;;;;;14.41;100.00;96767.16;5044360;28;20053;-61
2023/07/02 00:41:26;;;;;;;5.55;2.95;;;;;;;14.41;100.00;96761.72;5028690;28;20048;-61
2023/07/02 00:43:54;;;;;;;5.57;3.00;;;;;;;14.42;100.00;96763.31;5020444;28;20068;-61
2023/07/02 00:46:24;;;;;;;5.07;2.90;;;;;;;14.34;100.00;96755.81;5019089;28;20045;-62
2023/07/02 00:48:55;;;;;;;5.43;3.38;;;;;;;14.31;100.00;96777.06;5020884;28;21327;-61
2023/07/02 00:51:24;;;;;;;7.20;3.60;;;;;;;14.09;100.00;96780.31;5038531;28;20135;-61
2023/07/02 00:53:55;;;;;;;7.05;3.65;;;;;;;13.90;100.00;96778.31;5043882;28;20037;-61
2023/07/02 00:56:22;;;;;;;7.28;3.33;;;;;;;13.87;100.00;96792.53;5040537;28;20585;-61
2023/07/02 00:58:51;;;;;;;6.18;3.60;;;;;;;13.75;100.00;96806.50;5044081;28;20082;-61
2023/07/02 01:01:22;;;;;;;5.70;3.50;;;;;;;13.86;100.00;96817.31;5045165;28;20116;-61
2023/07/02 01:03:59;;;;;;;5.72;3.92;;;;;;;13.95;100.00;96820.19;5052931;28;20044;-60
2023/07/02 01:06:27;;;;;;;7.07;3.38;;;;;;;13.76;100.00;96796.44;5042879;28;20041;-60
2023/07/02 01:08:55;;;;;;;5.45;3.33;;;;;;;13.64;100.00;96797.63;5049284;28;20041;-61
2023/07/02 01:11:27;;;;;;;6.65;3.78;;;;;;;13.63;100.00;96809.59;5046372;28;20068;-61
2023/07/02 01:14:01;;;;;;;5.95;3.75;;;;;;;13.55;100.00;96814.84;5046774;28;20047;-61
2023/07/02 01:16:32;;;;;;;8.27;4.28;;;;;;;13.58;100.00;96833.31;5054608;28;20128;-59
2023/07/02 01:19:04;;;;;;;6.43;4.20;;;;;;;13.51;100.00;96839.09;5051262;28;20041;-61
2023/07/02 01:21:33;;;;;;;6.70;4.10;;;;;;;13.62;100.00;96829.75;5030903;28;20063;-59
2023/07/02 01:24:00;;;;;;;7.00;4.30;;;;;;;13.61;100.00;96828.13;5039110;28;20040;-61
2023/07/02 01:26:34;;;;;;;4.95;3.55;;;;;;;13.70;100.00;96816.63;5040564;28;20033;-60
2023/07/02 01:29:18;;;;;;;6.00;4.00;;;;;;;13.67;100.00;96815.28;5046944;28;20037;-60
2023/07/02 01:31:45;;;;;;;6.43;3.80;;;;;;;13.61;100.00;96795.50;5037845;28;20115;-61
2023/07/02 01:34:13;;;;;;;7.85;3.97;;;;;;;13.54;100.00;96822.22;5039567;28;20041;-61
2023/07/02 01:36:41;;;;;;;5.13;3.70;;;;;;;13.52;100.00;96818.94;5042387;28;20076;-61
2023/07/02 01:39:07;;;;;;;6.45;3.78;;;;;;;13.48;100.00;96810.56;5035026;28;20499;-61
2023/07/02 01:41:41;;;;;;;6.18;4.22;;;;;;;13.54;100.00;96814.03;5043174;28;20044;-61
2023/07/02 01:44:08;;;;;;;6.75;4.38;;;;;;;13.28;100.00;96803.34;5020898;28;20044;-62
2023/07/02 01:46:34;;;;;;;8.98;4.07;;;;;;;13.30;100.00;96809.31;5031475;28;20382;-60
2023/07/02 01:49:01;;;;;;;6.57;3.88;;;;;;;13.21;100.00;96808.28;5043369;28;20050;-61
2023/07/02 01:51:28;;;;;;;8.85;4.20;;;;;;;13.13;100.00;96809.72;5045420;28;20044;-61
2023/07/02 01:53:55;;;;;;;7.90;5.07;;;;;;;13.28;100.00;96830.53;5043438;28;20720;-61
2023/07/02 01:56:22;;;;;;;9.35;4.57;;;;;;;13.11;100.00;96809.97;5038243;28;20044;-61
2023/07/02 01:58:48;;;;;;;7.93;4.20;;;;;;;13.07;100.00;96821.69;5039741;28;20037;-61
2023/07/02 02:01:15;;;;;;;7.55;4.28;;;;;;;13.17;100.00;96848.81;5055480;28;20052;-61
2023/07/02 02:03:41;;;;;;;6.63;4.75;;;;;;;13.22;100.00;96845.25;5042094;28;20048;-61
2023/07/02 02:06:08;;;;;;;9.85;4.50;;;;;;;13.19;100.00;96837.66;5048237;28;20049;-60
2023/07/02 02:08:35;;;;;;;11.73;5.10;;;;;;;13.20;100.00;96837.38;5049806;28;20052;-61
2023/07/02 02:11:02;;;;;;;7.43;4.40;;;;;;;13.20;100.00;96844.72;5042087;28;20507;-61
2023/07/02 02:13:28;;;;;;;8.52;4.53;;;;;;;13.24;100.00;96834.91;5043222;28;20048;-61
2023/07/02 02:15:55;;;;;;;5.90;4.15;;;;;;;13.32;100.00;96841.66;5040782;28;20029;-61
2023/07/02 02:18:21;;;;;;;8.98;4.28;;;;;;;13.39;100.00;96845.66;5043229;28;20058;-61
2023/07/02 02:20:48;;;;;;;8.23;5.32;;;;;;;13.38;100.00;96838.59;5034684;28;20045;-61
2023/07/02 02:23:16;;;;;;;14.95;4.60;;;;;;;13.39;100.00;96832.06;5042878;28;20120;-61
2023/07/02 02:25:42;;;;;;;7.72;4.20;;;;;;;13.42;100.00;96827.16;5043093;28;20044;-61
2023/07/02 02:28:09;;;;;;;6.47;4.05;;;;;;;13.47;100.00;96841.53;5036856;28;20496;-61
2023/07/02 02:30:35;;;;;;;8.75;4.20;;;;;;;13.63;100.00;96825.09;5024564;28;20044;-61
2023/07/02 02:33:02;;;;;;;6.05;3.65;;;;;;;13.87;100.00;96780.81;5027497;28;20662;-61
2023/07/02 02:35:29;;;;;;;5.18;3.30;;;;;;;14.08;100.00;96767.78;5037994;28;20048;-60
2023/07/02 02:37:56;;;;;;;6.90;3.00;;;;;;;14.27;100.00;96765.13;5034721;28;20120;-61
2023/07/02 02:40:22;;;;;;;7.05;3.20;;;;;;;14.39;100.00;96764.72;5036572;28;20192;-61
2023/07/02 02:42:49;;;;;;;5.65;3.00;;;;;;;14.39;100.00;96766.63;5047086;28;20037;-61
2023/07/02 02:45:15;;;;;;;6.95;3.33;;;;;;;14.44;100.00;96770.09;5032080;28;20064;-60
2023/07/02 02:47:42;;;;;;;6.40;2.97;;;;;;;14.42;100.00;96779.66;5047116;28;20547;-61
2023/07/02 02:50:12;;;;;;;5.30;3.22;;;;;;;14.41;100.00;96773.41;5042882;28;20431;-61
2023/07/02 02:52:38;;;;;;;10.05;3.60;;;;;;;14.32;100.00;96791.50;5044068;28;20041;-61
2023/07/02 02:55:06;;;;;;;7.63;3.75;;;;;;;14.27;100.00;96797.00;5035511;28;20040;-61
2023/07/02 02:57:33;;;;;;;5.75;3.90;;;;;;;14.26;100.00;96807.06;5046719;28;20519;-61
2023/07/02 03:00:00;;;;;;;8.25;4.22;;;;;;;14.20;100.00;96801.97;5040453;28;20052;-61
2023/07/02 03:02:26;;;;;;;6.65;3.85;;;;;;;14.19;100.00;96801.16;5033723;28;20451;-61
2023/07/02 03:04:53;;;;;;;8.38;3.65;;;;;;;14.16;100.00;96808.00;5043945;28;20090;-62
2023/07/02 03:07:20;;;;;;;8.23;4.43;;;;;;;14.09;100.00;96804.81;5043374;28;20495;-61
2023/07/02 03:09:46;;;;;;;8.10;3.80;;;;;;;14.06;100.00;96808.13;5044190;28;20123;-61
2023/07/02 03:12:13;;;;;;;8.60;4.28;;;;;;;13.97;100.00;96799.75;5047636;28;20625;-61
2023/07/02 03:14:40;;;;;;;6.22;3.83;;;;;;;13.92;100.00;96799.81;5035111;28;20054;-61
2023/07/02 03:17:06;;;;;;;8.57;4.32;;;;;;;13.95;100.00;96806.59;5045811;28;20037;-61
2023/07/02 03:19:33;;;;;;;6.80;3.97;;;;;;;13.91;100.00;96806.34;5053602;28;20049;-61
2023/07/02 03:21:59;;;;;;;8.18;3.88;;;;;;;13.97;100.00;96818.00;5044830;28;20115;-62
2023/07/02 03:24:26;;;;;;;7.05;3.50;;;;;;;14.01;100.00;96813.63;5034926;28;20041;-61
2023/07/02 03:26:52;;;;;;;7.07;3.30;;;;;;;13.91;100.00;96809.91;5046441;28;20066;-60
2023/07/02 03:29:20;;;;;;;7.72;4.00;;;;;;;13.75;100.00;96813.88;5047226;28;20123;-61
2023/07/02 03:31:46;;;;;;;6.93;4.35;;;;;;;13.75;100.00;96811.94;5042993;28;20045;-60
2023/07/02 03:34:13;;;;;;;9.07;3.88;;;;;;;13.75;100.00;96822.03;5048039;28;20637;-60
2023/07/02 03:36:40;;;;;;;6.68;4.03;;;;;;;13.70;100.00;96816.63;5035839;28;20680;-60
2023/07/02 03:39:06;;;;;;;8.07;3.63;;;;;;;13.73;100.00;96830.47;5049880;28;20041;-61
2023/07/02 03:41:36;;;;;;;8.50;4.18;;;;;;;13.77;100.00;96830.72;5040821;28;20076;-61
2023/07/02 03:44:03;;;;;;;7.47;4.10;;;;;;;13.77;100.00;96842.41;5041279;28;20072;-62
2023/07/02 03:46:31;;;;;;;7.15;3.55;;;;;;;13.75;100.00;96839.16;5045216;28;20465;-61
2023/07/02 03:48:57;;;;;;;7.13;3.70;;;;;;;13.64;100.00;96841.16;5047843;28;20045;-61
2023/07/02 03:51:24;;;;;;;7.13;4.03;;;;;;;13.63;100.00;96836.00;5039407;28;20041;-61
2023/07/02 03:53:51;;;;;;;8.50;3.78;;;;;;;13.66;100.00;96827.25;5041828;28;20030;-60
2023/07/02 03:56:17;;;;;;;8.45;4.22;;;;;;;13.53;100.00;96832.25;5033012;28;20051;-62
2023/07/02 03:58:44;;;;;;;10.23;4.43;;;;;;;13.60;100.00;96825.69;5039148;28;20063;-60
2023/07/02 04:01:10;;;;;;;7.10;3.40;;;;;;;13.65;100.00;96848.19;5047242;28;20042;-61
2023/07/02 04:03:47;;;;;;;7.03;3.38;;;;;;;13.51;100.00;96837.19;5049580;28;20047;-61
2023/07/02 04:06:14;;;;;;;8.35;3.55;;;;;;;13.53;100.00;96845.88;5049217;28;20571;-61
2023/07/02 04:08:41;;;;;;;7.57;3.63;;;;;;;13.50;100.00;96840.97;5046646;28;20048;-61
2023/07/02 04:11:08;;;;;;;6.75;3.17;;;;;;;13.58;100.00;96841.47;5035869;28;20060;-61
2023/07/02 04:13:34;;;;;;;8.50;3.85;;;;;;;13.60;100.00;96847.47;5036887;28;20044;-60
2023/07/02 04:16:01;;;;;;;9.30;3.78;;;;;;;13.63;100.00;96844.16;5049482;28;20042;-60
2023/07/02 04:18:29;;;;;;;7.32;3.38;;;;;;;13.65;100.00;96842.75;5044163;28;20055;-60
2023/07/02 04:20:56;;;;;;;8.00;3.30;;;;;;;13.72;100.00;96853.34;5044513;28;20041;-60
2023/07/02 04:23:22;;;;;;;11.10;3.50;;;;;;;13.68;100.00;96851.47;5055414;28;20622;-61
2023/07/02 04:25:50;;;;;;;9.48;3.92;;;;;;;13.59;100.00;96848.53;5044836;28;20037;-61
2023/07/02 04:28:36;;;;;;;7.78;3.97;;;;;;;13.79;100.00;96853.00;5039866;28;20503;-60
2023/07/02 04:31:03;;;;;;;11.55;3.35;;;;;;;13.97;100.00;96851.47;5051552;28;20049;-60
2023/07/02 04:33:35;;;;;;;9.85;3.78;;;;;;;13.98;100.00;96855.84;5031802;28;20049;-59
2023/07/02 04:36:03;;;;;;;9.20;3.85;;;;;;;13.98;100.00;96864.00;5037839;28;20686;-58
2023/07/02 04:38:29;;;;;;;7.18;3.60;;;;;;;13.91;100.00;96856.16;5040492;28;20051;-62
2023/07/02 04:41:04;;;;;;;7.40;3.80;;;;;;;13.77;100.00;96861.47;5040773;28;20055;-62
2023/07/02 04:43:33;;;;;;;5.72;3.50;;;;;;;13.82;100.00;96865.22;5040511;28;20536;-61
2023/07/02 04:46:00;;;;;;;6.38;3.95;;;;;;;13.94;100.00;96864.84;5045275;28;20045;-61
2023/07/02 04:48:27;;;;;;;7.00;3.53;;;;;;;13.99;100.00;96862.06;5047886;28;20032;-62
2023/07/02 04:50:54;;;;;;;7.93;3.42;;;;;;;14.05;100.00;96863.66;5046921;28;20735;-61
2023/07/02 04:53:20;;;;;;;6.80;3.13;;;;;;;14.07;100.00;96861.44;5050567;28;20700;-61
2023/07/02 04:55:47;;;;;;;8.70;4.25;;;;;;;14.08;100.00;96865.00;5051128;28;20126;-61
2023/07/02 04:58:13;;;;;;;7.63;3.65;;;;;;;14.20;100.00;96867.31;5039147;28;20055;-61
2023/07/02 05:00:40;;;;;;;9.30;3.65;;;;;;;14.25;100.00;96864.53;5047175;28;20048;-61
2023/07/02 05:03:06;;;;;;;7.57;3.97;;;;;;;14.35;100.00;96866.34;5046403;28;20850;-61
2023/07/02 05:05:33;;;;;;;8.43;3.53;;;;;;;14.35;100.00;96859.00;5042948;28;20106;-61
2023/07/02 05:07:59;;;;;;;7.90;3.05;;;;;;;14.34;100.00;96870.97;5048056;28;20041;-62
2023/07/02 05:10:26;;;;;;;8.35;4.07;;;;;;;14.40;100.00;96874.44;5049711;28;20538;-60
2023/07/02 05:12:52;;;;;;;7.20;3.33;;;;;;;14.41;100.00;96868.72;5055050;28;20060;-60
2023/07/02 05:15:19;;;;;;;7.78;3.85;;;;;;;14.41;100.00;96878.81;5040773;28;20700;-60
2023/07/02 05:17:46;;;;;;;7.40;3.47;;;;;;;14.44;100.00;96876.31;5043543;28;20119;-61
2023/07/02 05:20:12;;;;;;;11.15;3.95;;;;;;;14.47;100.00;96882.28;5045055;28;20049;-61
2023/07/02 05:22:39;;;;;;;7.00;3.67;;;;;;;14.48;100.00;96873.03;5048638;28;20060;-61
2023/07/02 05:25:06;;;;;;;9.00;3.50;;;;;;;14.54;100.00;96882.75;5041174;28;20131;-59
2023/07/02 05:27:33;;;;;;;7.60;3.80;;;;;;;14.61;100.00;96887.84;5041739;28;20037;-59
2023/07/02 05:29:59;;;;;;;8.90;4.18;;;;;;;14.71;100.00;96887.75;5038603;28;20049;-60
2023/07/02 05:32:26;;;;;;;8.32;4.00;;;;;;;14.81;100.00;96889.53;5039577;28;20089;-59
2023/07/02 05:34:52;;;;;;;7.15;4.13;;;;;;;14.93;100.00;96886.41;5031589;28;20041;-59
2023/07/02 05:37:19;;;;;;;7.85;4.07;;;;;;;15.02;100.00;96886.56;5034140;28;20103;-60
2023/07/02 05:39:45;;;;;;;13.75;3.90;;;;;;;14.87;100.00;96890.28;5046204;28;20381;-60
2023/07/02 05:42:12;;;;;;;8.13;4.13;;;;;;;14.94;100.00;96894.31;5043724;28;20049;-59
2023/07/02 05:44:38;;;;;;;6.88;4.13;;;;;;;15.04;100.00;96889.81;5032644;28;20574;-60
2023/07/02 05:47:05;;;;;;;9.00;3.47;;;;;;;14.90;100.00;96896.00;5031888;28;20047;-61
2023/07/02 05:49:32;;;;;;;7.53;3.60;;;;;;;15.00;100.00;96892.28;5054930;28;20052;-59
2023/07/02 05:51:58;;;;;;;8.85;4.63;;;;;;;15.00;99.71;96888.78;5040178;28;20060;-61
2023/07/02 05:54:25;;;;;;;8.88;3.60;;;;;;;15.12;99.83;96894.63;5041426;28;20114;-58
2023/07/02 05:56:51;;;;;;;10.35;4.07;;;;;;;15.22;99.45;96890.91;5051815;28;20037;-61
2023/07/02 05:59:19;;;;;;;9.30;4.00;;;;;;;15.26;96.91;96891.94;5038733;28;20049;-61
2023/07/02 06:01:45;;;;;;;9.57;4.65;;;;;;;15.25;98.56;96911.34;5049863;28;20680;-61
2023/07/02 06:04:12;;;;;;;8.40;4.13;;;;;;;15.28;96.48;96917.03;5042976;28;20044;-60
2023/07/02 06:06:39;;;;;;;11.55;4.10;;;;;;;15.31;95.29;96908.25;5054651;28;20049;-61
2023/07/02 06:09:05;;;;;;;9.40;4.60;;;;;;;15.41;95.22;96909.22;5042082;28;20563;-61
2023/07/02 06:11:32;;;;;;;12.05;5.45;;;;;;;15.25;94.70;96916.81;5046962;28;20060;-61
2023/07/02 06:13:58;;;;;;;10.80;4.80;;;;;;;15.28;95.87;96908.03;5048556;28;20052;-58
2023/07/02 06:16:25;;;;;;;8.40;4.20;;;;;;;15.39;96.12;96917.69;5057175;28;20052;-59
2023/07/02 06:18:51;;;;;;;11.13;4.80;;;;;;;15.52;96.15;96912.59;5043304;28;20041;-60
2023/07/02 06:21:19;;;;;;;11.32;4.40;;;;;;;15.46;94.25;96920.88;5049931;28;20752;-60
2023/07/02 06:23:46;;;;;;;10.35;4.35;;;;;;;15.60;93.75;96917.41;5046113;28;20036;-59
2023/07/02 06:26:12;;;;;;;11.82;5.22;;;;;;;15.58;95.37;96917.69;5039902;28;20048;-59
2023/07/02 06:28:39;;;;;;;10.45;4.47;;;;;;;15.63;95.21;96921.44;5057211;28;20052;-58
2023/07/02 06:31:06;;;;;;;10.38;4.43;;;;;;;15.73;94.71;96929.47;5051479;28;20045;-59
2023/07/02 06:33:32;;;;;;;9.13;4.50;;;;;;;15.74;95.46;96922.91;5051582;28;20045;-60
2023/07/02 06:35:59;;;;;;;11.27;4.53;;;;;;;15.85;95.09;96934.50;5052922;28;20518;-60
2023/07/02 06:38:25;;;;;;;12.80;4.80;;;;;;;15.93;94.70;96927.53;5034371;28;20049;-59
2023/07/02 06:40:52;;;;;;;10.68;4.55;;;;;;;15.84;93.34;96930.13;5046402;28;20052;-60
2023/07/02 06:43:18;;;;;;;13.63;5.38;;;;;;;15.81;91.48;96928.00;5035792;28;20065;-60
2023/07/02 06:45:45;;;;;;;13.15;5.65;;;;;;;15.65;90.74;96930.97;5045352;28;20547;-60
2023/07/02 06:48:14;;;;;;;11.52;6.07;;;;;;;15.89;91.99;96932.78;5044843;28;20096;-60
2023/07/02 06:50:45;;;;;;;12.25;6.05;;;;;;;16.01;89.23;96939.72;5045412;28;20060;-60
2023/07/02 06:53:13;;;;;;;11.95;5.72;;;;;;;15.98;89.36;96941.94;5039835;28;20048;-60
2023/07/02 06:55:39;;;;;;;13.07;5.70;;;;;;;16.07;88.75;96938.53;5046926;28;20116;-60
2023/07/02 06:58:07;;;;;;;12.30;6.18;;;;;;;16.12;87.75;96933.00;5038895;28;20037;-58
2023/07/02 07:00:35;;;;;;;14.23;6.50;;;;;;;16.06;83.70;96926.78;5044777;28;20056;-59
2023/07/02 07:03:03;;;;;;;12.65;6.47;;;;;;;16.21;85.59;96946.75;5036946;28;20536;-60
2023/07/02 07:05:31;;;;;;;13.68;6.55;;;;;;;16.22;82.41;96946.44;5037532;28;20057;-60
2023/07/02 07:07:58;;;;;;;17.05;6.57;;;;;;;16.33;82.04;96949.03;5041087;28;20045;-58
2023/07/02 07:10:25;;;;;;;15.02;7.25;;;;;;;16.41;83.11;96929.22;5040361;28;20037;-60
2023/07/02 07:12:51;;;;;;;20.65;8.85;;;;;;;16.49;83.04;96942.19;5033306;28;20052;-60
2023/07/02 07:15:18;;;;;;;10.82;6.60;;;;;;;16.48;78.95;96935.06;5059973;28;20044;-60
2023/07/02 07:17:44;;;;;;;12.57;6.95;;;;;;;16.45;80.38;96954.81;5040328;28;20051;-60
2023/07/02 07:20:11;;;;;;;12.45;7.32;;;;;;;16.50;79.63;96949.25;5049543;28;20040;-61
2023/07/02 07:22:38;;;;;;;13.15;6.60;;;;;;;16.45;77.11;96948.53;5049103;28;20055;-60
2023/07/02 07:25:05;;;;;;;19.67;7.80;;;;;;;16.55;78.65;96945.59;5042412;28;20098;-60
2023/07/02 07:27:31;;;;;;;14.95;7.32;;;;;;;16.51;76.92;96950.06;5043428;28;20457;-59
2023/07/02 07:29:58;;;;;;;14.88;7.72;;;;;;;16.64;76.62;96954.75;5043216;28;20050;-60
2023/07/02 07:32:24;;;;;;;16.58;7.68;;;;;;;16.80;77.62;96945.44;5052459;28;20037;-60
2023/07/02 07:34:51;;;;;;;16.00;7.53;;;;;;;16.96;76.47;96954.16;5036594;28;20045;-59
2023/07/02 07:37:18;;;;;;;17.30;8.13;;;;;;;16.96;72.23;96952.25;5052923;28;20040;-56
2023/07/02 07:39:44;;;;;;;13.10;6.78;;;;;;;16.72;72.97;96953.22;5054741;28;20160;-58
2023/07/02 07:42:11;;;;;;;16.98;7.97;;;;;;;16.73;73.61;96963.03;5036599;28;20049;-59
2023/07/02 07:44:37;;;;;;;18.88;9.05;;;;;;;16.74;72.94;96945.53;5048771;28;20099;-59
2023/07/02 07:47:04;;;;;;;19.33;8.55;;;;;;;16.83;72.50;96958.50;5044249;28;20049;-60
2023/07/02 07:49:31;;;;;;;14.20;8.45;;;;;;;16.99;74.21;96954.34;5049314;28;20049;-60
2023/07/02 07:51:57;;;;;;;16.95;8.18;;;;;;;17.08;73.18;96957.22;5040903;28;20116;-59
2023/07/02 07:54:24;;;;;;;18.95;9.68;;;;;;;17.10;72.89;96952.25;5057752;28;20102;-60
2023/07/02 07:56:51;;;;;;;17.00;8.93;;;;;;;17.28;72.69;96953.25;5037268;28;20072;-59
2023/07/02 07:59:17;;;;;;;17.42;8.25;;;;;;;17.46;72.05;96958.88;5041582;28;20095;-59
2023/07/02 08:01:46;;;;;;;21.30;9.85;;;;;;;17.52;70.00;96951.38;5035246;28;20526;-59
2023/07/02 08:04:12;;;;;;;25.02;10.32;;;;;;;17.63;69.18;96960.16;5035891;28;20116;-59
2023/07/02 08:06:39;;;;;;;18.48;9.10;;;;;;;17.63;68.15;96960.16;5043351;28;20127;-59
2023/07/02 08:09:06;;;;;;;21.08;10.25;;;;;;;17.47;68.50;96968.69;5036813;28;20638;-59
2023/07/02 08:11:34;;;;;;;16.95;10.18;;;;;;;17.41;69.68;96950.78;5037591;28;20052;-59
2023/07/02 08:14:00;;;;;;;17.95;9.13;;;;;;;17.39;68.60;96955.75;5034474;28;20045;-59
2023/07/02 08:16:27;;;;;;;19.10;9.65;;;;;;;17.45;67.79;96940.84;5045524;28;20044;-58
2023/07/02 08:18:53;;;;;;;18.67;9.50;;;;;;;17.45;68.18;96949.06;5032922;28;20071;-57
2023/07/02 08:21:20;;;;;;;19.67;9.73;;;;;;;17.74;67.18;96956.06;5045777;28;20467;-58
2023/07/02 08:23:47;;;;;;;19.85;9.40;;;;;;;17.87;66.50;96956.34;5042720;28;20057;-58
2023/07/02 08:26:14;;;;;;;16.92;8.65;;;;;;;17.77;66.78;96955.44;5044244;28;20048;-58
2023/07/02 08:28:40;;;;;;;20.13;9.35;;;;;;;17.89;65.96;96959.56;5041373;28;20037;-59
2023/07/02 08:31:07;;;;;;;17.88;9.13;;;;;;;18.08;65.80;96959.41;5044957;28;20064;-58
2023/07/02 08:33:33;;;;;;;16.88;9.45;;;;;;;18.10;65.59;96961.84;5039035;28;20069;-58
2023/07/02 08:36:01;;;;;;;20.33;9.90;;;;;;;18.17;65.21;96963.03;5055628;28;20032;-57
2023/07/02 08:38:27;;;;;;;17.35;9.43;;;;;;;18.29;63.06;96961.66;5049914;28;20156;-55
2023/07/02 08:40:54;;;;;;;18.25;9.57;;;;;;;18.09;63.92;96969.25;5048870;28;20127;-58
2023/07/02 08:43:23;;;;;;;18.58;9.35;;;;;;;17.98;65.68;96978.81;5043721;28;20040;-58
2023/07/02 08:45:50;;;;;;;16.08;8.98;;;;;;;18.13;65.31;96961.22;5047401;28;20045;-58
2023/07/02 08:48:22;;;;;;;18.17;9.48;;;;;;;18.25;65.79;96971.63;5052170;28;20045;-60
2023/07/02 08:50:49;;;;;;;16.73;9.02;;;;;;;18.18;64.46;96964.63;5043094;28;20049;-60
2023/07/02 08:53:16;;;;;;;17.55;10.43;;;;;;;18.14;63.36;96965.59;5036276;28;20540;-59
2023/07/02 08:55:43;;;;;;;19.33;9.35;;;;;;;18.48;63.48;96952.41;5045691;28;20075;-60
2023/07/02 08:58:10;;;;;;;22.25;10.48;;;;;;;18.76;61.83;96961.25;5047151;28;20083;-60
2023/07/02 09:00:36;;;;;;;19.48;9.55;;;;;;;18.80;59.43;96981.44;5051169;28;20056;-57
2023/07/02 09:03:14;;;;;;;23.75;10.38;;;;;;;18.62;59.90;96952.31;5029307;28;20063;-53
2023/07/02 09:05:50;;;;;;;23.00;10.60;;;;;;;18.35;58.88;96963.13;5033264;28;20706;-57
2023/07/02 09:08:27;;;;;;;21.83;10.15;;;;;;;18.56;60.24;96955.19;5051870;28;20609;-56
2023/07/02 09:11:04;;;;;;;20.45;9.80;;;;;;;18.79;59.11;96957.88;5042903;28;20055;-57
2023/07/02 09:13:31;;;;;;;20.90;10.13;;;;;;;18.89;60.51;96956.78;5051030;28;20059;-56
2023/07/02 09:15:57;;;;;;;18.50;8.63;;;;;;;19.33;58.11;96956.13;5055714;28;20041;-57
2023/07/02 09:18:25;;;;;;;16.58;8.88;;;;;;;19.67;57.31;96968.28;5061692;28;20040;-54
2023/07/02 09:20:55;;;;;;;20.98;10.90;;;;;;;19.59;59.95;96960.84;5051990;28;20124;-55
2023/07/02 09:23:21;;;;;;;20.38;10.43;;;;;;;19.86;59.20;96973.47;5047233;28;20538;-55
2023/07/02 09:25:49;;;;;;;17.85;10.50;;;;;;;19.62;58.71;96971.19;5045899;28;20602;-56
2023/07/02 09:28:18;;;;;;;21.40;10.68;;;;;;;19.67;58.53;96967.47;5051432;28;20054;-56
2023/07/02 09:30:57;;;;;;;20.75;10.85;;;;;;;19.75;58.76;96972.97;5043790;28;20037;-55
2023/07/02 09:33:25;;;;;;;20.00;11.07;;;;;;;19.78;57.75;96963.28;5040230;28;20042;-56
2023/07/02 09:35:52;;;;;;;19.08;10.35;;;;;;;19.83;56.21;96957.63;5049900;28;20043;-54
2023/07/02 09:38:20;;;;;;;21.95;9.93;;;;;;;20.07;57.46;96972.03;5054285;28;20587;-55
2023/07/02 09:40:49;;;;;;;23.02;10.63;;;;;;;20.03;57.26;96966.41;5046143;28;20072;-56
2023/07/02 09:43:18;;;;;;;19.25;10.20;;;;;;;19.86;56.40;96965.22;5040772;28;20037;-53
2023/07/02 09:45:47;;;;;;;24.80;10.98;;;;;;;20.02;58.01;96954.56;5048645;28;20045;-55
2023/07/02 09:48:17;;;;;;;22.27;11.02;;;;;;;19.88;56.97;96959.41;5055936;28;20048;-57
2023/07/02 09:50:46;;;;;;;18.88;11.05;;;;;;;19.83;56.29;96962.34;5041119;28;20045;-56
2023/07/02 09:53:14;;;;;;;17.95;9.68;;;;;;;19.75;57.18;96947.44;5048453;28;20048;-55
2023/07/02 09:55:44;;;;;;;17.42;8.82;;;;;;;19.85;55.51;96947.13;5046224;28;20044;-53
2023/07/02 09:58:14;;;;;;;16.70;9.85;;;;;;;19.95;54.98;96950.69;5039601;28;20049;-54
2023/07/02 10:00:41;;;;;;;18.77;9.43;;;;;;;19.62;54.60;96950.06;5038532;28;20102;-56
2023/07/02 10:03:08;;;;;;;17.52;9.48;;;;;;;19.71;54.08;96935.50;5046527;28;20047;-55
2023/07/02 10:05:35;;;;;;;17.67;9.60;;;;;;;19.73;54.71;96952.47;5033460;28;20122;-54
2023/07/02 10:08:21;;;;;;;17.65;9.95;;;;;;;20.23;55.26;96953.13;5027571;28;20041;-56
2023/07/02 10:10:48;;;;;;;19.30;10.15;;;;;;;20.57;53.92;96940.44;5030915;28;20511;-54
2023/07/02 10:13:26;;;;;;;19.08;9.48;;;;;;;20.94;53.95;96948.25;5042440;28;20048;-53
2023/07/02 10:16:03;;;;;;;16.45;9.90;;;;;;;20.91;53.69;96944.22;5033902;28;20045;-54
2023/07/02 10:18:30;;;;;;;20.55;9.45;;;;;;;20.90;51.81;96953.59;5046372;28;20041;-57
2023/07/02 10:20:57;;;;;;;18.10;10.07;;;;;;;21.00;53.05;96952.41;5034982;28;20052;-57
2023/07/02 10:23:37;;;;;;;16.20;9.75;;;;;;;20.48;53.16;96958.88;5044572;28;20052;-55
2023/07/02 10:26:19;;;;;;;16.65;9.55;;;;;;;20.21;54.07;96958.13;5043119;28;20106;-57
2023/07/02 10:28:59;;;;;;;20.75;10.85;;;;;;;20.61;55.18;96944.13;5043000;28;20107;-56
2023/07/02 10:31:26;;;;;;;18.60;10.10;;;;;;;20.53;54.36;96940.25;5033787;28;20048;-57
2023/07/02 10:33:52;;;;;;;19.27;10.52;;;;;;;20.90;54.67;96945.31;5044647;28;20055;-54
2023/07/02 10:36:23;;;;;;;16.42;9.77;;;;;;;20.80;52.42;96951.19;5039561;28;20051;-56
2023/07/02 10:38:50;;;;;;;;;;;;;;;20.83;51.70;96946.97;5051598;28;20059;-56
2023/07/02 10:41:28;;;;;;;18.23;10.07;;;;;;;20.92;51.86;96953.25;5055746;28;19920;-56
2023/07/02 10:44:08;;;;;;;18.55;8.80;;;;;;;21.09;47.71;96940.56;5044632;28;20044;-56
2023/07/02 10:46:43;;;;;;;17.88;9.32;;;;;;;21.28;49.58;96943.69;5042843;28;20053;-55
2023/07/02 10:49:11;;;;;;;16.13;8.40;;;;;;;21.10;48.88;96953.97;5052779;28;20036;-54
2023/07/02 10:51:38;;;;;;;20.00;9.80;;;;;;;20.77;49.86;96954.56;5042154;28;20060;-57
2023/07/02 10:54:05;;;;;;;18.13;9.98;;;;;;;20.43;50.55;96946.13;5038799;28;20044;-57
2023/07/02 10:56:32;;;;;;;17.17;8.93;;;;;;;20.76;51.73;96948.28;5037951;28;20684;-55
2023/07/02 10:58:59;;;;;;;15.30;8.90;;;;;;;21.04;50.13;96947.84;5045324;28;20043;-57
2023/07/02 11:01:30;;;;;;;18.48;10.30;;;;;;;21.33;51.49;96939.13;5048470;28;20053;-56
2023/07/02 11:04:03;;;;;;;17.27;10.75;;;;;;;21.51;49.57;96943.38;5042908;28;20052;-56
2023/07/02 11:06:32;;;;;;;16.30;9.15;;;;;;;21.45;49.92;96941.97;5043339;28;20057;-56
2023/07/02 11:09:00;;;;;;;18.50;9.48;;;;;;;21.67;49.04;96946.31;5048137;28;20153;-56
2023/07/02 11:11:27;;;;;;;17.83;9.45;;;;;;;21.44;49.14;96945.84;5044001;28;20049;-56
2023/07/02 11:13:54;;;;;;;18.65;9.50;;;;;;;21.51;49.57;96948.06;5044417;28;20046;-55
2023/07/02 11:16:29;;;;;;;19.60;10.18;;;;;;;21.42;50.85;96948.13;5042049;28;20049;-56
2023/07/02 11:19:09;;;;;;;17.67;10.02;;;;;;;21.53;50.55;96943.81;5050737;28;20033;-57
2023/07/02 11:21:37;;;;;;;17.27;10.60;;;;;;;21.71;49.20;96943.72;5046854;28;20074;-55
2023/07/02 11:24:10;;;;;;;16.17;10.20;;;;;;;21.55;50.27;96949.81;5045763;28;20164;-55
2023/07/02 11:26:41;;;;;;;16.92;9.23;;;;;;;21.31;50.46;96950.47;5044232;28;20041;-56
2023/07/02 11:29:11;;;;;;;17.70;9.73;;;;;;;21.09;50.04;96952.38;5043588;28;20404;-56